Time;durP1;ratioP1;P1;durP2;ratioP2;P2;SDS_P1;SDS_P2;PMS_P1;PMS_P2;Temp;Humidity;BMP_temperature;BMP_pressure;BME280_temperature;BME280_humidity;BME280_pressure;Samples;Min_cycle;Max_cycle;Signal;HPM_P1;HPM_P2
2022/04/24 00:00:08;;;;;;;;;;;;;;;12.59;51.64;100281.19;5116399;28;19953;-34
2022/04/24 00:02:33;;;;;;;;;;;;;;;12.49;52.00;100289.25;5115368;28;19951;-34
2022/04/24 00:04:59;;;;;;;;;;;;;;;12.47;51.80;100283.25;5115871;28;19962;-34
2022/04/24 00:07:24;;;;;;;;;;;;;;;12.42;51.97;100290.53;5115816;28;19912;-34
2022/04/24 00:09:49;;;;;;;;;;;;;;;12.36;51.99;100278.81;5115697;28;19912;-34
2022/04/24 00:12:17;;;;;;;;;;;;;;;12.36;52.09;100282.34;5115661;28;19911;-34
2022/04/24 00:14:43;;;;;;;;;;;;;;;12.29;52.71;100280.91;5115568;28;19915;-34
2022/04/24 00:17:08;;;;;;;;;;;;;;;12.25;52.61;100274.34;5115783;28;19945;-34
2022/04/24 00:19:34;;;;;;;;;;;;;;;12.27;52.56;100280.34;5115503;28;19911;-34
2022/04/24 00:21:59;;;;;;;;;;;;;;;12.20;52.99;100277.00;5115305;28;20464;-34
2022/04/24 00:24:25;;;;;;;;;;;;;;;12.10;53.18;100269.59;5115365;28;19927;-34
2022/04/24 00:26:51;;;;;;;;;;;;;;;12.02;53.09;100262.75;5115703;28;19918;-34
2022/04/24 00:29:16;;;;;;;;;;;;;;;11.94;53.38;100270.50;5115540;28;19911;-34
2022/04/24 00:31:41;;;;;;;;;;;;;;;11.97;53.19;100267.28;5115355;28;19947;-34
2022/04/24 00:34:06;;;;;;;;;;;;;;;11.96;53.52;100265.66;5115025;28;19955;-34
2022/04/24 00:36:32;;;;;;;;;;;;;;;11.93;53.44;100261.56;5115191;28;19915;-34
2022/04/24 00:38:57;;;;;;;;;;;;;;;11.91;53.97;100257.44;5114743;28;19911;-34
2022/04/24 00:41:22;;;;;;;;;;;;;;;11.82;54.22;100257.09;5114948;28;20414;-34
2022/04/24 00:43:52;;;;;;;;;;;;;;;11.72;54.57;100256.94;5113549;28;20002;-34
2022/04/24 00:46:35;;;;;;;;;;;;;;;11.69;54.74;100260.97;5115994;28;19911;-34
2022/04/24 00:49:01;;;;;;;;;;;;;;;11.64;54.61;100257.38;5114870;28;19937;-35
2022/04/24 00:51:26;;;;;;;;;;;;;;;11.59;54.88;100248.13;5114483;28;19920;-34
2022/04/24 00:53:52;;;;;;;;;;;;;;;11.53;54.92;100254.56;5115183;28;19912;-34
2022/04/24 00:56:18;;;;;;;;;;;;;;;11.58;54.53;100249.19;5115224;28;19919;-34
2022/04/24 00:58:43;;;;;;;;;;;;;;;11.46;55.41;100251.19;5114622;28;19911;-34
2022/04/24 01:01:09;;;;;;;;;;;;;;;11.47;55.51;100252.84;5114851;28;19919;-34
2022/04/24 01:03:34;;;;;;;;;;;;;;;11.47;55.72;100258.28;5114916;28;19923;-34
2022/04/24 01:06:00;;;;;;;;;;;;;;;11.41;55.83;100255.72;5115055;28;19912;-34
2022/04/24 01:08:25;;;;;;;;;;;;;;;11.40;55.63;100252.22;5114472;28;20327;-34
2022/04/24 01:10:50;;;;;;;;;;;;;;;11.39;56.20;100266.00;5115176;28;19984;-34
2022/04/24 01:13:15;;;;;;;;;;;;;;;11.38;55.93;100259.78;5114526;28;20376;-34
2022/04/24 01:15:40;;;;;;;;;;;;;;;11.31;56.08;100264.53;5113549;28;19912;-34
2022/04/24 01:18:06;;;;;;;;;;;;;;;11.27;56.52;100266.94;5114656;28;19912;-34
2022/04/24 01:20:31;;;;;;;;;;;;;;;11.18;56.57;100259.50;5114584;28;19981;-34
2022/04/24 01:22:56;;;;;;;;;;;;;;;11.17;57.08;100264.06;5114440;28;19922;-34
2022/04/24 01:25:22;;;;;;;;;;;;;;;11.17;56.17;100269.47;5114488;28;19915;-34
2022/04/24 01:27:47;;;;;;;;;;;;;;;11.09;56.81;100262.63;5114962;28;20275;-34
2022/04/24 01:30:12;;;;;;;;;;;;;;;11.03;57.06;100263.63;5113847;28;19918;-34
2022/04/24 01:32:40;;;;;;;;;;;;;;;11.00;57.52;100253.28;5113862;28;19916;-34
2022/04/24 01:35:07;;;;;;;;;;;;;;;10.89;58.04;100261.50;5114112;28;20368;-34
2022/04/24 01:37:32;;;;;;;;;;;;;;;10.82;57.95;100258.94;5113758;28;19916;-34
2022/04/24 01:39:58;;;;;;;;;;;;;;;10.88;57.09;100266.06;5114372;28;19923;-34
2022/04/24 01:42:23;;;;;;;;;;;;;;;10.87;57.69;100267.13;5113145;28;19958;-34
2022/04/24 01:44:48;;;;;;;;;;;;;;;10.88;57.78;100266.06;5114308;28;19916;-34
2022/04/24 01:47:14;;;;;;;;;;;;;;;10.78;58.09;100266.75;5113990;28;19912;-34
2022/04/24 01:49:39;;;;;;;;;;;;;;;10.73;58.26;100269.34;5113840;28;19915;-34
2022/04/24 01:52:08;;;;;;;;;;;;;;;10.68;58.25;100263.84;5114213;28;19911;-34
2022/04/24 01:54:33;;;;;;;;;;;;;;;10.63;58.61;100265.66;5113595;28;19911;-34
2022/04/24 01:56:59;;;;;;;;;;;;;;;10.61;58.61;100257.00;5113510;28;20370;-34
2022/04/24 01:59:24;;;;;;;;;;;;;;;10.61;58.94;100265.09;5113834;28;19912;-34
2022/04/24 02:01:49;;;;;;;;;;;;;;;10.54;59.35;100260.69;5113606;28;20328;-34
2022/04/24 02:04:15;;;;;;;;;;;;;;;10.55;59.39;100261.50;5113651;28;19919;-34
2022/04/24 02:06:40;;;;;;;;;;;;;;;10.52;59.55;100262.78;5114103;28;19993;-34
2022/04/24 02:09:05;;;;;;;;;;;;;;;10.50;58.94;100259.53;5114066;28;19915;-34
2022/04/24 02:11:31;;;;;;;;;;;;;;;10.45;59.80;100258.63;5114325;28;19912;-34
2022/04/24 02:13:56;;;;;;;;;;;;;;;10.46;59.12;100255.66;5113524;28;19911;-34
2022/04/24 02:16:21;;;;;;;;;;;;;;;10.43;59.50;100264.25;5113737;28;19998;-34
2022/04/24 02:18:47;;;;;;;;;;;;;;;10.41;60.14;100263.69;5113735;28;19911;-34
2022/04/24 02:21:13;;;;;;;;;;;;;;;10.35;59.72;100267.38;5113247;28;19911;-34
2022/04/24 02:23:38;;;;;;;;;;;;;;;10.39;60.24;100263.09;5113484;28;19919;-34
2022/04/24 02:26:04;;;;;;;;;;;;;;;10.35;60.09;100261.16;5114110;28;20014;-34
2022/04/24 02:28:29;;;;;;;;;;;;;;;10.31;60.64;100260.81;5114079;28;19955;-34
2022/04/24 02:30:54;;;;;;;;;;;;;;;10.32;60.72;100262.44;5113342;28;19919;-34
2022/04/24 02:33:19;;;;;;;;;;;;;;;10.22;61.16;100257.66;5113231;28;19919;-34
2022/04/24 02:35:44;;;;;;;;;;;;;;;10.24;61.20;100260.13;5113861;28;19961;-34
2022/04/24 02:38:10;;;;;;;;;;;;;;;10.18;60.69;100261.91;5113428;28;19911;-34
2022/04/24 02:40:35;;;;;;;;;;;;;;;10.11;61.67;100268.53;5113479;28;20264;-34
2022/04/24 02:43:00;;;;;;;;;;;;;;;10.02;61.13;100268.91;5113315;28;19920;-34
2022/04/24 02:45:26;;;;;;;;;;;;;;;9.99;61.44;100268.56;5113470;28;20301;-34
2022/04/24 02:47:51;;;;;;;;;;;;;;;10.01;62.03;100261.06;5113422;28;20376;-34
2022/04/24 02:50:16;;;;;;;;;;;;;;;10.01;61.47;100272.66;5113365;28;20248;-34
2022/04/24 02:52:46;;;;;;;;;;;;;;;9.89;62.53;100269.19;5114325;28;20241;-34
2022/04/24 02:55:11;;;;;;;;;;;;;;;9.93;62.10;100272.22;5116469;28;19923;-34
2022/04/24 02:57:37;;;;;;;;;;;;;;;9.95;61.86;100278.19;5117038;28;19912;-34
2022/04/24 03:00:03;;;;;;;;;;;;;;;9.87;61.77;100281.28;5116503;28;20350;-34
2022/04/24 03:02:28;;;;;;;;;;;;;;;9.77;62.76;100273.81;5116767;28;20021;-34
2022/04/24 03:04:54;;;;;;;;;;;;;;;9.72;63.34;100276.41;5116674;28;20085;-34
2022/04/24 03:07:19;;;;;;;;;;;;;;;9.71;62.92;100272.91;5116933;28;19916;-34
2022/04/24 03:09:44;;;;;;;;;;;;;;;9.68;63.51;100275.25;5116838;28;19919;-34
2022/04/24 03:12:09;;;;;;;;;;;;;;;9.63;63.00;100270.56;5117585;28;19912;-34
2022/04/24 03:14:34;;;;;;;;;;;;;;;9.60;63.56;100272.91;5116944;28;19935;-34
2022/04/24 03:17:00;;;;;;;;;;;;;;;9.62;63.04;100274.31;5115710;28;19918;-34
2022/04/24 03:19:25;;;;;;;;;;;;;;;9.66;63.93;100274.66;5116795;28;19994;-34
2022/04/24 03:21:50;;;;;;;;;;;;;;;9.60;64.32;100271.03;5116462;28;20003;-34
2022/04/24 03:24:15;;;;;;;;;;;;;;;9.55;64.11;100276.31;5116454;28;19911;-34
2022/04/24 03:26:41;;;;;;;;;;;;;;;9.44;64.33;100272.59;5116704;28;19919;-34
2022/04/24 03:29:06;;;;;;;;;;;;;;;9.43;65.17;100281.75;5115209;28;19919;-34
2022/04/24 03:31:31;;;;;;;;;;;;;;;9.42;64.85;100274.72;5116616;28;19912;-34
2022/04/24 03:33:58;;;;;;;;;;;;;;;9.41;64.72;100274.94;5116848;28;19911;-34
2022/04/24 03:36:23;;;;;;;;;;;;;;;9.33;65.68;100273.44;5116847;28;19965;-34
2022/04/24 03:38:48;;;;;;;;;;;;;;;9.31;65.98;100275.53;5116607;28;19915;-34
2022/04/24 03:41:13;;;;;;;;;;;;;;;9.27;66.78;100272.50;5116918;28;19911;-34
2022/04/24 03:43:38;;;;;;;;;;;;;;;9.29;66.22;100274.97;5116012;28;19981;-34
2022/04/24 03:46:05;;;;;;;;;;;;;;;9.27;67.01;100275.19;5116145;28;19964;-34
2022/04/24 03:48:31;;;;;;;;;;;;;;;9.26;66.67;100281.63;5116280;28;19912;-34
2022/04/24 03:50:56;;;;;;;;;;;;;;;9.29;66.48;100275.78;5116349;28;20398;-34
2022/04/24 03:53:21;;;;;;;;;;;;;;;9.33;66.34;100275.31;5115995;28;19911;-34
2022/04/24 03:55:46;;;;;;;;;;;;;;;9.29;66.37;100278.47;5116774;28;19912;-34
2022/04/24 03:58:11;;;;;;;;;;;;;;;9.17;67.57;100276.81;5115552;28;19922;-34
2022/04/24 04:00:37;;;;;;;;;;;;;;;9.07;68.45;100274.72;5116010;28;19911;-34
2022/04/24 04:03:02;;;;;;;;;;;;;;;9.08;68.37;100283.63;5115792;28;19912;-34
2022/04/24 04:05:27;;;;;;;;;;;;;;;9.10;67.50;100270.75;5115353;28;20000;-34
2022/04/24 04:07:52;;;;;;;;;;;;;;;8.95;69.27;100269.34;5115931;28;20301;-34
2022/04/24 04:10:18;;;;;;;;;;;;;;;8.90;69.39;100271.91;5115873;28;20085;-34
2022/04/24 04:12:43;;;;;;;;;;;;;;;8.93;68.69;100276.84;5115254;28;19912;-34
2022/04/24 04:15:08;;;;;;;;;;;;;;;8.87;69.85;100272.38;5115536;28;19961;-34
2022/04/24 04:17:33;;;;;;;;;;;;;;;8.89;68.98;100274.84;5115640;28;19915;-34
2022/04/24 04:19:59;;;;;;;;;;;;;;;8.87;69.65;100276.94;5115488;28;19918;-34
2022/04/24 04:22:25;;;;;;;;;;;;;;;8.93;69.78;100286.78;5115380;27;19915;-34
2022/04/24 04:24:50;;;;;;;;;;;;;;;8.92;69.45;100271.66;5115507;28;20010;-34
2022/04/24 04:27:15;;;;;;;;;;;;;;;8.91;69.87;100278.94;5115546;28;20006;-34
2022/04/24 04:29:41;;;;;;;;;;;;;;;8.84;70.50;100283.66;5115350;28;19975;-34
2022/04/24 04:32:06;;;;;;;;;;;;;;;8.84;70.12;100283.66;5115527;28;20014;-34
2022/04/24 04:34:31;;;;;;;;;;;;;;;8.80;70.84;100282.47;5115003;28;19912;-34
2022/04/24 04:36:56;;;;;;;;;;;;;;;8.86;69.45;100294.19;5115798;28;20002;-34
2022/04/24 04:39:22;;;;;;;;;;;;;;;8.83;71.20;100292.75;5114684;28;19971;-34
2022/04/24 04:41:47;;;;;;;;;;;;;;;8.74;71.13;100307.66;5115028;28;20282;-34
2022/04/24 04:44:12;;;;;;;;;;;;;;;8.74;70.65;100294.19;5114867;28;19918;-34
2022/04/24 04:46:38;;;;;;;;;;;;;;;8.76;70.29;100300.97;5115002;28;20360;-34
2022/04/24 04:49:03;;;;;;;;;;;;;;;8.77;70.42;100307.19;5114805;27;20405;-34
2022/04/24 04:51:29;;;;;;;;;;;;;;;8.67;71.44;100304.22;5115600;28;19915;-33
2022/04/24 04:53:55;;;;;;;;;;;;;;;8.67;71.52;100315.84;5114465;28;19919;-33
2022/04/24 04:56:21;;;;;;;;;;;;;;;8.65;71.63;100311.75;5114699;28;19918;-33
2022/04/24 04:58:46;;;;;;;;;;;;;;;8.72;71.02;100318.66;5114680;28;19911;-33
2022/04/24 05:01:11;;;;;;;;;;;;;;;8.69;71.13;100318.31;5114935;28;19947;-33
2022/04/24 05:03:37;;;;;;;;;;;;;;;8.76;70.69;100316.31;5114434;28;20427;-34
2022/04/24 05:06:02;;;;;;;;;;;;;;;8.81;71.03;100316.44;5114585;28;19918;-34
2022/04/24 05:08:27;;;;;;;;;;;;;;;8.76;71.56;100319.03;5114397;28;20018;-34
2022/04/24 05:10:52;;;;;;;;;;;;;;;8.80;71.15;100319.38;5114499;28;19919;-34
2022/04/24 05:13:18;;;;;;;;;;;;;;;8.80;71.71;100333.69;5113148;28;19916;-33
2022/04/24 05:15:43;;;;;;;;;;;;;;;8.87;71.50;100330.88;5114019;28;19941;-34
2022/04/24 05:18:08;;;;;;;;;;;;;;;8.85;71.31;100331.13;5114249;28;19911;-34
2022/04/24 05:20:34;;;;;;;;;;;;;;;8.84;71.48;100325.97;5115122;28;19919;-34
2022/04/24 05:23:07;;;;;;;;;;;;;;;8.91;71.17;100330.19;5114282;28;19938;-33
2022/04/24 05:25:33;;;;;;;;;;;;;;;8.85;71.32;100328.41;5114450;28;20228;-35
2022/04/24 05:28:00;;;;;;;;;;;;;;;8.95;70.61;100347.53;5114164;28;19919;-33
2022/04/24 05:30:26;;;;;;;;;;;;;;;9.00;70.89;100339.56;5114614;28;19911;-33
2022/04/24 05:32:51;;;;;;;;;;;;;;;9.09;70.00;100345.44;5114538;28;19915;-34
2022/04/24 05:35:17;;;;;;;;;;;;;;;9.05;69.63;100343.44;5114348;28;19912;-34
2022/04/24 05:37:42;;;;;;;;;;;;;;;9.16;69.75;100350.72;5114251;28;19919;-33
2022/04/24 05:40:08;;;;;;;;;;;;;;;9.22;69.30;100353.31;5112908;28;19954;-33
2022/04/24 05:42:33;;;;;;;;;;;;;;;9.27;68.68;100349.91;5113852;28;20014;-33
2022/04/24 05:45:04;;;;;;;;;;;;;;;9.40;69.26;100346.97;5113609;28;19919;-34
2022/04/24 05:47:29;;;;;;;;;;;;;;;9.38;68.87;100359.91;5113927;28;19980;-33
2022/04/24 05:49:54;;;;;;;;;;;;;;;9.28;68.44;100355.09;5113639;28;19920;-33
2022/04/24 05:52:20;;;;;;;;;;;;;;;9.41;68.24;100351.31;5113861;28;19911;-34
2022/04/24 05:54:45;;;;;;;;;;;;;;;9.47;68.32;100352.28;5113809;28;20363;-34
2022/04/24 05:57:10;;;;;;;;;;;;;;;9.60;68.09;100362.00;5113905;28;19912;-34
2022/04/24 05:59:36;;;;;;;;;;;;;;;9.67;67.97;100368.09;5114023;28;19919;-34
2022/04/24 06:02:01;;;;;;;;;;;;;;;9.70;66.64;100354.94;5113776;28;19911;-34
2022/04/24 06:04:27;;;;;;;;;;;;;;;9.79;66.90;100352.69;5113635;28;19958;-34
2022/04/24 06:06:52;;;;;;;;;;;;;;;9.71;66.92;100363.84;5114210;28;19971;-34
2022/04/24 06:09:18;;;;;;;;;;;;;;;9.80;67.06;100359.72;5113692;28;19916;-34
2022/04/24 06:11:43;;;;;;;;;;;;;;;9.83;66.55;100359.25;5113768;28;19912;-34
2022/04/24 06:14:09;;;;;;;;;;;;;;;9.97;66.48;100368.75;5113977;28;19964;-34
2022/04/24 06:16:34;;;;;;;;;;;;;;;9.97;66.15;100363.34;5113667;28;19964;-34
2022/04/24 06:18:59;;;;;;;;;;;;;;;10.03;66.60;100367.78;5114166;28;20048;-34
2022/04/24 06:21:24;;;;;;;;;;;;;;;10.04;66.14;100369.41;5114180;28;19980;-34
2022/04/24 06:23:51;;;;;;;;;;;;;;;10.07;65.93;100377.06;5113391;28;20359;-34
2022/04/24 06:26:16;;;;;;;;;;;;;;;10.17;65.89;100370.22;5114417;28;20022;-34
2022/04/24 06:28:42;;;;;;;;;;;;;;;10.33;64.80;100364.06;5114475;28;19985;-34
2022/04/24 06:31:08;;;;;;;;;;;;;;;10.38;64.96;100366.88;5118086;28;19911;-34
2022/04/24 06:33:33;;;;;;;;;;;;;;;10.43;64.59;100360.75;5117471;28;19988;-34
2022/04/24 06:35:58;;;;;;;;;;;;;;;10.40;64.02;100369.34;5117928;28;20203;-33
2022/04/24 06:38:24;;;;;;;;;;;;;;;10.51;64.06;100365.78;5117336;28;19923;-34
2022/04/24 06:40:49;;;;;;;;;;;;;;;10.55;63.58;100365.06;5118188;28;19912;-34
2022/04/24 06:43:14;;;;;;;;;;;;;;;10.64;63.65;100373.59;5117754;28;20290;-34
2022/04/24 06:45:40;;;;;;;;;;;;;;;10.74;63.02;100368.38;5117379;28;19912;-34
2022/04/24 06:48:07;;;;;;;;;;;;;;;10.84;63.21;100373.13;5117196;28;19911;-34
2022/04/24 06:50:33;;;;;;;;;;;;;;;10.89;62.53;100372.41;5118249;28;20393;-34
2022/04/24 06:52:58;;;;;;;;;;;;;;;10.89;61.54;100375.94;5116905;28;19923;-34
2022/04/24 06:55:24;;;;;;;;;;;;;;;10.99;62.45;100375.28;5117667;28;19911;-34
2022/04/24 06:57:51;;;;;;;;;;;;;;;11.13;62.50;100379.31;5116853;28;19912;-34
2022/04/24 07:00:16;;;;;;;;;;;;;;;11.26;62.01;100375.44;5117071;28;19911;-34
2022/04/24 07:02:41;;;;;;;;;;;;;;;11.34;61.52;100373.13;5116770;28;19939;-34
2022/04/24 07:05:07;;;;;;;;;;;;;;;11.44;60.86;100383.31;5116942;28;19961;-34
2022/04/24 07:07:32;;;;;;;;;;;;;;;11.45;59.75;100376.81;5116861;28;19915;-34
2022/04/24 07:09:59;;;;;;;;;;;;;;;11.50;61.11;100374.19;5117107;28;20444;-34
2022/04/24 07:12:24;;;;;;;;;;;;;;;11.54;60.27;100378.03;5116704;28;19919;-34
2022/04/24 07:14:49;;;;;;;;;;;;;;;11.59;59.83;100380.81;5117482;28;19912;-34
2022/04/24 07:17:14;;;;;;;;;;;;;;;11.58;59.34;100387.31;5117253;27;19919;-34
2022/04/24 07:19:40;;;;;;;;;;;;;;;11.67;59.75;100376.06;5116849;28;20005;-34
2022/04/24 07:22:05;;;;;;;;;;;;;;;11.71;59.07;100380.72;5116154;28;19946;-34
2022/04/24 07:24:30;;;;;;;;;;;;;;;11.76;58.78;100383.50;5116091;28;20002;-34
2022/04/24 07:26:55;;;;;;;;;;;;;;;11.80;59.01;100383.81;5117012;28;20010;-34
2022/04/24 07:29:20;;;;;;;;;;;;;;;11.89;58.26;100392.34;5116186;28;19912;-34
2022/04/24 07:31:46;;;;;;;;;;;;;;;11.88;58.54;100388.84;5116172;28;19911;-34
2022/04/24 07:34:11;;;;;;;;;;;;;;;11.95;58.33;100397.59;5116676;28;19911;-34
2022/04/24 07:36:37;;;;;;;;;;;;;;;11.99;57.82;100396.03;5117144;28;19912;-34
2022/04/24 07:39:02;;;;;;;;;;;;;;;12.14;58.14;100402.72;5115360;28;20434;-34
2022/04/24 07:41:27;;;;;;;;;;;;;;;12.28;58.21;100391.22;5115865;28;20272;-34
2022/04/24 07:43:52;;;;;;;;;;;;;;;12.40;57.71;100396.53;5116322;28;20370;-34
2022/04/24 07:46:18;;;;;;;;;;;;;;;12.47;56.75;100401.75;5116411;28;20013;-34
2022/04/24 07:48:43;;;;;;;;;;;;;;;12.52;56.72;100399.91;5116405;28;20274;-34
2022/04/24 07:51:08;;;;;;;;;;;;;;;12.50;55.27;100404.78;5115811;28;19911;-34
2022/04/24 07:53:33;;;;;;;;;;;;;;;12.49;55.29;100395.00;5115889;28;19911;-34
2022/04/24 07:55:59;;;;;;;;;;;;;;;12.57;55.71;100391.00;5116728;28;19912;-34
2022/04/24 07:58:24;;;;;;;;;;;;;;;12.65;55.84;100387.84;5115874;28;19912;-33
2022/04/24 08:00:49;;;;;;;;;;;;;;;12.82;56.81;100383.13;5116484;28;19976;-34
2022/04/24 08:03:15;;;;;;;;;;;;;;;12.95;53.93;100395.47;5115351;28;19918;-33
2022/04/24 08:05:42;;;;;;;;;;;;;;;12.99;54.85;100388.44;5115798;28;20348;-34
2022/04/24 08:08:08;;;;;;;;;;;;;;;13.05;53.97;100397.44;5115954;28;19912;-34
2022/04/24 08:10:35;;;;;;;;;;;;;;;13.18;55.13;100386.16;5116521;28;19912;-33
2022/04/24 08:13:00;;;;;;;;;;;;;;;13.27;53.94;100395.47;5115658;28;19934;-34
2022/04/24 08:15:26;;;;;;;;;;;;;;;13.35;53.39;100403.16;5115825;28;19911;-34
2022/04/24 08:17:51;;;;;;;;;;;;;;;13.42;53.72;100400.25;5115521;28;19915;-33
2022/04/24 08:20:16;;;;;;;;;;;;;;;13.53;54.08;100403.84;5115975;28;20360;-34
2022/04/24 08:22:49;;;;;;;;;;;;;;;13.65;52.89;100399.84;5115251;27;19961;-34
2022/04/24 08:25:16;;;;;;;;;;;;;;;13.76;53.33;100402.59;5115328;28;19918;-34
2022/04/24 08:27:41;;;;;;;;;;;;;;;13.85;51.73;100403.75;5115273;28;19918;-35
2022/04/24 08:30:07;;;;;;;;;;;;;;;13.82;52.01;100396.97;5115376;28;20014;-35
2022/04/24 08:32:33;;;;;;;;;;;;;;;13.87;51.46;100402.44;5115021;28;19919;-35
2022/04/24 08:34:58;;;;;;;;;;;;;;;13.99;51.45;100391.31;5115604;28;19915;-35
2022/04/24 08:37:24;;;;;;;;;;;;;;;14.14;52.00;100404.19;5115045;28;19923;-34
2022/04/24 08:39:49;;;;;;;;;;;;;;;13.98;50.25;100411.44;5114729;28;19953;-35
2022/04/24 08:42:18;;;;;;;;;;;;;;;14.08;50.33;100405.25;5115341;28;19912;-34
2022/04/24 08:44:44;;;;;;;;;;;;;;;14.08;50.25;100395.19;5114875;28;19916;-35
2022/04/24 08:47:09;;;;;;;;;;;;;;;14.25;51.02;100402.31;5115258;28;19912;-34
2022/04/24 08:49:34;;;;;;;;;;;;;;;14.34;50.32;100408.88;5114685;28;19935;-34
2022/04/24 08:52:00;;;;;;;;;;;;;;;14.27;49.12;100411.84;5114639;28;19911;-34
2022/04/24 08:54:28;;;;;;;;;;;;;;;14.36;50.33;100404.81;5114591;28;19938;-34
2022/04/24 08:56:56;;;;;;;;;;;;;;;14.52;51.19;100411.16;5114411;28;19911;-34
2022/04/24 08:59:22;;;;;;;;;;;;;;;14.63;50.16;100406.56;5114738;28;19912;-34
2022/04/24 09:01:47;;;;;;;;;;;;;;;14.70;50.48;100406.31;5114491;28;20095;-34
2022/04/24 09:04:13;;;;;;;;;;;;;;;14.85;50.36;100415.31;5114890;28;19946;-34
2022/04/24 09:06:40;;;;;;;;;;;;;;;14.78;49.49;100405.75;5115445;28;19915;-34
2022/04/24 09:09:05;;;;;;;;;;;;;;;14.99;49.82;100410.16;5114729;28;20096;-34
2022/04/24 09:11:31;;;;;;;;;;;;;;;15.11;48.57;100415.34;5114518;28;20092;-34
2022/04/24 09:14:15;;;;;;;;;;;;;;;15.20;48.95;100411.81;5114801;28;19916;-34
2022/04/24 09:16:47;;;;;;;;;;;;;;;15.29;48.71;100403.91;5114130;28;19918;-34
2022/04/24 09:19:22;;;;;;;;;;;;;;;15.15;47.89;100408.28;5114969;28;19919;-34
2022/04/24 09:21:48;;;;;;;;;;;;;;;15.34;48.07;100411.28;5115157;28;19920;-34
2022/04/24 09:24:14;;;;;;;;;;;;;;;15.56;48.21;100409.06;5114942;28;19920;-34
2022/04/24 09:26:55;;;;;;;;;;;;;;;15.62;47.49;100407.97;5115332;28;19916;-34
2022/04/24 09:29:21;;;;;;;;;;;;;;;15.77;46.90;100406.34;5114189;28;19911;-34
2022/04/24 09:31:50;;;;;;;;;;;;;;;15.82;46.96;100411.78;5114342;28;20003;-34
2022/04/24 09:34:19;;;;;;;;;;;;;;;15.62;46.40;100412.63;5113908;28;20376;-34
2022/04/24 09:36:44;;;;;;;;;;;;;;;15.76;47.31;100418.31;5114705;27;20374;-34
2022/04/24 09:39:10;;;;;;;;;;;;;;;15.87;46.21;100411.78;5113896;28;19999;-34
2022/04/24 09:41:36;;;;;;;;;;;;;;;15.99;45.87;100409.53;5114161;28;19912;-34
2022/04/24 09:44:10;;;;;;;;;;;;;;;15.99;45.82;100411.47;5113838;28;19912;-34
2022/04/24 09:46:35;;;;;;;;;;;;;;;16.05;46.66;100407.63;5114592;28;19912;-34
2022/04/24 09:49:01;;;;;;;;;;;;;;;16.00;45.87;100404.91;5114188;28;19968;-34
2022/04/24 09:51:26;;;;;;;;;;;;;;;16.10;45.21;100419.31;5114480;28;19980;-34
2022/04/24 09:53:52;;;;;;;;;;;;;;;16.34;46.07;100407.78;5113901;28;20041;-34
2022/04/24 09:56:18;;;;;;;;;;;;;;;16.42;45.46;100407.22;5114384;28;19935;-34
2022/04/24 09:58:44;;;;;;;;;;;;;;;16.29;44.98;100411.34;5113819;28;19972;-34
2022/04/24 10:01:10;;;;;;;;;;;;;;;16.37;45.08;100412.69;5113871;28;20011;-34
2022/04/24 10:03:38;;;;;;;;;;;;;;;16.62;44.73;100415.28;5115946;28;20372;-34
2022/04/24 10:06:05;;;;;;;;;;;;;;;16.73;43.74;100410.59;5118784;28;19916;-35
2022/04/24 10:08:32;;;;;;;;;;;;;;;16.85;44.06;100413.00;5117946;28;19912;-35
2022/04/24 10:11:00;;;;;;;;;;;;;;;16.94;43.33;100411.31;5118692;28;20348;-34
2022/04/24 10:13:26;;;;;;;;;;;;;;;17.04;43.03;100418.63;5117470;28;19976;-35
2022/04/24 10:16:15;;;;;;;;;;;;;;;17.17;43.29;100409.75;5118376;28;19912;-35
2022/04/24 10:18:43;;;;;;;;;;;;;;;17.11;41.87;100417.19;5034959;28;19986;-34
2022/04/24 10:21:14;;;;;;;;;;;;;;;17.18;42.81;100408.69;5035574;28;20319;-34
2022/04/24 10:23:39;;;;;;;;;;;;;;;17.18;43.05;100404.03;5034545;28;19916;-35
2022/04/24 10:26:16;;;;;;;;;;;;;;;17.24;43.68;100410.25;5034696;28;19963;-35
2022/04/24 10:28:45;;;;;;;;;;;;;;;17.29;42.55;100412.13;5034500;28;20381;-34
2022/04/24 10:31:11;;;;;;;;;;;;;;;17.32;41.52;100411.53;5034866;28;19948;-34
2022/04/24 10:33:36;;;;;;;;;;;;;;;17.28;40.88;100405.03;5034593;28;19957;-34
2022/04/24 10:36:02;;;;;;;;;;;;;;;17.40;42.17;100410.94;5034640;28;19917;-35
2022/04/24 10:38:28;;;;;;;;;;;;;;;17.57;40.76;100413.22;5034549;28;19917;-35
2022/04/24 10:40:57;;;;;;;;;;;;;;;17.59;40.44;100409.13;5035033;28;20308;-35
2022/04/24 10:43:23;;;;;;;;;;;;;;;17.64;40.47;100403.59;5034784;28;19958;-35
2022/04/24 10:45:49;;;;;;;;;;;;;;;17.72;40.48;100408.44;5034347;28;20420;-35
2022/04/24 10:48:14;;;;;;;;;;;;;;;17.61;40.74;100415.09;5034198;28;19920;-35
2022/04/24 10:50:49;;;;;;;;;;;;;;;17.30;41.22;100408.28;5034495;28;19932;-34
2022/04/24 10:53:15;;;;;;;;;;;;;;;17.53;40.13;100407.53;5034216;28;19913;-34
2022/04/24 10:55:42;;;;;;;;;;;;;;;17.60;39.67;100410.75;5076981;28;20341;-34
2022/04/24 10:58:07;;;;;;;;;;;;;;;17.52;39.39;100411.38;5117054;28;19954;-34
2022/04/24 11:00:34;;;;;;;;;;;;;;;17.66;39.83;100406.84;5117121;28;19950;-34
2022/04/24 11:03:06;;;;;;;;;;;;;;;17.82;40.37;100413.03;5117299;28;20462;-34
2022/04/24 11:05:35;;;;;;;;;;;;;;;17.92;39.87;100404.72;5117567;28;20283;-34
2022/04/24 11:08:03;;;;;;;;;;;;;;;17.87;38.93;100415.72;5116890;28;19911;-34
2022/04/24 11:10:29;;;;;;;;;;;;;;;17.96;39.95;100415.91;5117249;28;19911;-34
2022/04/24 11:12:55;;;;;;;;;;;;;;;17.95;39.07;100400.56;5117239;28;19919;-34
2022/04/24 11:15:21;;;;;;;;;;;;;;;18.01;39.44;100402.97;5116969;28;19911;-34
2022/04/24 11:17:46;;;;;;;;;;;;;;;17.74;39.08;100411.72;5116695;28;20394;-34
2022/04/24 11:20:16;;;;;;;;;;;;;;;17.89;38.78;100415.41;5116907;27;20018;-34
2022/04/24 11:22:48;;;;;;;;;;;;;;;17.95;38.80;100415.06;5116312;28;20351;-35
2022/04/24 11:25:14;;;;;;;;;;;;;;;18.22;38.57;100409.00;5116618;28;19911;-34
2022/04/24 11:27:41;;;;;;;;;;;;;;;18.28;39.21;100410.56;5115835;28;19919;-35
2022/04/24 11:30:37;;;;;;;;;;;;;;;18.22;37.74;100405.47;5116715;28;19911;-34
2022/04/24 11:33:07;;;;;;;;;;;;;;;18.31;38.92;100408.38;5033789;28;20012;-34
2022/04/24 11:35:36;;;;;;;;;;;;;;;18.26;38.82;100404.59;5033583;28;20384;-34
2022/04/24 11:38:03;;;;;;;;;;;;;;;18.07;38.47;100405.66;5033339;28;19948;-35
2022/04/24 11:40:29;;;;;;;;;;;;;;;18.43;39.16;100409.56;5034059;28;20008;-35
2022/04/24 11:43:03;;;;;;;;;;;;;;;18.47;39.19;100407.06;5033237;28;19971;-35
2022/04/24 11:51:02;;;;;;;;;;;;;;;18.50;37.50;100401.00;5033784;28;19975;-34
2022/04/24 11:53:28;;;;;;;;;;;;;;;18.59;38.58;100395.66;5032964;28;19920;-34
2022/04/24 11:56:02;;;;;;;;;;;;;;;18.88;38.52;100410.06;5033155;28;20320;-34
2022/04/24 11:58:37;;;;;;;;;;;;;;;18.94;37.35;100408.06;5032973;28;19965;-34
2022/04/24 12:01:04;;;;;;;;;;;;;;;18.91;37.34;100414.13;5033715;28;20306;-34
2022/04/24 12:03:30;;;;;;;;;;;;;;;18.87;36.38;100402.13;5032956;28;19952;-34
2022/04/24 12:05:57;;;;;;;;;;;;;;;18.90;37.28;100407.03;5033634;28;19956;-34
2022/04/24 12:08:23;;;;;;;;;;;;;;;19.08;37.51;100406.22;5040158;28;19912;-34
2022/04/24 12:10:48;;;;;;;;;;;;;;;19.07;37.28;100401.81;5116054;28;20038;-34
2022/04/24 12:13:21;;;;;;;;;;;;;;;19.00;37.04;100404.94;5115682;28;19957;-34
2022/04/24 12:15:50;;;;;;;;;;;;;;;19.07;36.80;100401.81;5115630;28;19942;-34
2022/04/24 12:18:20;;;;;;;;;;;;;;;18.49;37.35;100408.38;5115544;28;19916;-34
2022/04/24 12:20:45;;;;;;;;;;;;;;;18.56;37.92;100410.78;5115530;28;19941;-34
2022/04/24 12:23:15;;;;;;;;;;;;;;;18.78;36.91;100408.28;5115511;28;19969;-34
2022/04/24 12:25:51;;;;;;;;;;;;;;;19.09;36.89;100402.34;5115691;28;19918;-34
2022/04/24 12:28:35;;;;;;;;;;;;;;;19.34;36.88;100408.53;5115402;28;19911;-34
2022/04/24 12:31:01;;;;;;;;;;;;;;;18.87;36.22;100419.38;5116117;28;20263;-34
2022/04/24 12:33:27;;;;;;;;;;;;;;;18.37;37.10;100421.69;5115298;28;20288;-34
2022/04/24 12:35:52;;;;;;;;;;;;;;;18.26;38.33;100412.78;5115275;28;19941;-34
2022/04/24 12:38:19;;;;;;;;;;;;;;;18.66;38.08;100407.88;5115116;28;19920;-34
2022/04/24 12:40:58;;;;;;;;;;;;;;;18.98;37.48;100403.59;5115028;28;20398;-34